sensor_id;sensor_type;location;lat;lon;timestamp;temperature;humidity
68217;DHT22;55037;52.354;4.992;2023-04-24T00:01:26;13.30;90.30
68217;DHT22;55037;52.354;4.992;2023-04-24T00:03:56;13.30;90.20
68217;DHT22;55037;52.354;4.992;2023-04-24T00:06:26;13.20;90.30
68217;DHT22;55037;52.354;4.992;2023-04-24T00:09:04;13.20;90.20
68217;DHT22;55037;52.354;4.992;2023-04-24T00:11:32;13.20;90.30
68217;DHT22;55037;52.354;4.992;2023-04-24T00:14:01;13.20;90.40
68217;DHT22;55037;52.354;4.992;2023-04-24T00:16:28;13.20;89.60
68217;DHT22;55037;52.354;4.992;2023-04-24T00:18:56;13.10;90.10
68217;DHT22;55037;52.354;4.992;2023-04-24T00:21:23;13.00;90.00
68217;DHT22;55037;52.354;4.992;2023-04-24T00:23:52;13.00;90.10
68217;DHT22;55037;52.354;4.992;2023-04-24T00:26:20;12.80;90.20
68217;DHT22;55037;52.354;4.992;2023-04-24T00:28:47;12.80;90.30
68217;DHT22;55037;52.354;4.992;2023-04-24T00:31:14;12.70;90.20
68217;DHT22;55037;52.354;4.992;2023-04-24T00:33:42;12.70;90.30
68217;DHT22;55037;52.354;4.992;2023-04-24T00:36:09;12.60;90.30
68217;DHT22;55037;52.354;4.992;2023-04-24T00:38:36;12.50;90.50
68217;DHT22;55037;52.354;4.992;2023-04-24T00:41:03;12.40;90.40
68217;DHT22;55037;52.354;4.992;2023-04-24T00:43:31;12.30;90.50
68217;DHT22;55037;52.354;4.992;2023-04-24T00:45:58;12.20;90.50
68217;DHT22;55037;52.354;4.992;2023-04-24T00:48:28;12.10;90.70
68217;DHT22;55037;52.354;4.992;2023-04-24T00:50:55;12.10;90.90
68217;DHT22;55037;52.354;4.992;2023-04-24T00:53:23;12.00;90.90
68217;DHT22;55037;52.354;4.992;2023-04-24T00:55:50;12.00;91.00
68217;DHT22;55037;52.354;4.992;2023-04-24T00:58:18;11.90;91.00
68217;DHT22;55037;52.354;4.992;2023-04-24T01:00:45;11.90;91.10
68217;DHT22;55037;52.354;4.992;2023-04-24T01:03:13;11.90;91.10
68217;DHT22;55037;52.354;4.992;2023-04-24T01:05:41;11.90;91.20
68217;DHT22;55037;52.354;4.992;2023-04-24T01:08:09;11.90;91.70
68217;DHT22;55037;52.354;4.992;2023-04-24T01:10:38;11.80;91.30
68217;DHT22;55037;52.354;4.992;2023-04-24T01:13:08;11.90;91.30
68217;DHT22;55037;52.354;4.992;2023-04-24T01:15:36;11.90;91.40
68217;DHT22;55037;52.354;4.992;2023-04-24T01:18:03;11.90;91.40
68217;DHT22;55037;52.354;4.992;2023-04-24T01:20:31;11.90;91.20
68217;DHT22;55037;52.354;4.992;2023-04-24T01:22:59;11.80;91.20
68217;DHT22;55037;52.354;4.992;2023-04-24T01:25:28;11.80;91.30
68217;DHT22;55037;52.354;4.992;2023-04-24T01:27:57;11.80;91.30
68217;DHT22;55037;52.354;4.992;2023-04-24T01:30:24;11.80;91.30
68217;DHT22;55037;52.354;4.992;2023-04-24T01:32:52;11.80;91.70
68217;DHT22;55037;52.354;4.992;2023-04-24T01:35:20;11.70;91.30
68217;DHT22;55037;52.354;4.992;2023-04-24T01:37:47;11.80;91.40
68217;DHT22;55037;52.354;4.992;2023-04-24T01:40:15;11.70;91.40
68217;DHT22;55037;52.354;4.992;2023-04-24T01:42:42;11.80;91.50
68217;DHT22;55037;52.354;4.992;2023-04-24T01:45:11;11.80;91.50
68217;DHT22;55037;52.354;4.992;2023-04-24T01:47:39;11.70;91.30
68217;DHT22;55037;52.354;4.992;2023-04-24T01:50:07;11.70;91.30
68217;DHT22;55037;52.354;4.992;2023-04-24T01:52:34;11.60;91.00
68217;DHT22;55037;52.354;4.992;2023-04-24T01:55:03;11.50;90.90
68217;DHT22;55037;52.354;4.992;2023-04-24T01:57:31;11.40;91.00
68217;DHT22;55037;52.354;4.992;2023-04-24T01:59:59;11.30;91.00
68217;DHT22;55037;52.354;4.992;2023-04-24T02:02:28;11.20;91.00
68217;DHT22;55037;52.354;4.992;2023-04-24T02:04:57;11.20;91.10
68217;DHT22;55037;52.354;4.992;2023-04-24T02:07:24;11.10;91.20
68217;DHT22;55037;52.354;4.992;2023-04-24T02:09:52;11.10;91.30
68217;DHT22;55037;52.354;4.992;2023-04-24T02:12:19;11.10;91.40
68217;DHT22;55037;52.354;4.992;2023-04-24T02:14:46;11.20;91.40
68217;DHT22;55037;52.354;4.992;2023-04-24T02:17:13;11.10;91.40
68217;DHT22;55037;52.354;4.992;2023-04-24T02:19:42;11.10;91.40
68217;DHT22;55037;52.354;4.992;2023-04-24T02:22:10;11.00;91.40
68217;DHT22;55037;52.354;4.992;2023-04-24T02:24:38;11.00;91.40
68217;DHT22;55037;52.354;4.992;2023-04-24T02:27:06;11.00;91.40
68217;DHT22;55037;52.354;4.992;2023-04-24T02:29:33;11.00;91.20
68217;DHT22;55037;52.354;4.992;2023-04-24T02:32:01;11.00;91.30
68217;DHT22;55037;52.354;4.992;2023-04-24T02:34:28;11.00;91.80
68217;DHT22;55037;52.354;4.992;2023-04-24T02:36:56;11.00;91.40
68217;DHT22;55037;52.354;4.992;2023-04-24T02:39:23;10.90;91.30
68217;DHT22;55037;52.354;4.992;2023-04-24T02:41:52;11.00;91.40
68217;DHT22;55037;52.354;4.992;2023-04-24T02:44:19;11.00;91.40
68217;DHT22;55037;52.354;4.992;2023-04-24T02:46:46;10.90;91.40
68217;DHT22;55037;52.354;4.992;2023-04-24T02:49:13;10.90;91.40
68217;DHT22;55037;52.354;4.992;2023-04-24T02:51:41;10.90;91.50
68217;DHT22;55037;52.354;4.992;2023-04-24T02:54:08;10.90;91.40
68217;DHT22;55037;52.354;4.992;2023-04-24T02:56:37;10.90;91.50
68217;DHT22;55037;52.354;4.992;2023-04-24T02:59:06;10.90;91.40
68217;DHT22;55037;52.354;4.992;2023-04-24T03:01:33;10.90;91.40
68217;DHT22;55037;52.354;4.992;2023-04-24T03:04:01;10.90;91.50
68217;DHT22;55037;52.354;4.992;2023-04-24T03:06:29;10.90;91.10
68217;DHT22;55037;52.354;4.992;2023-04-24T03:08:58;10.80;91.40
68217;DHT22;55037;52.354;4.992;2023-04-24T03:11:25;10.90;91.30
68217;DHT22;55037;52.354;4.992;2023-04-24T03:13:52;10.80;91.40
68217;DHT22;55037;52.354;4.992;2023-04-24T03:16:20;10.80;91.40
68217;DHT22;55037;52.354;4.992;2023-04-24T03:18:47;10.80;91.40
68217;DHT22;55037;52.354;4.992;2023-04-24T03:21:15;10.80;91.40
68217;DHT22;55037;52.354;4.992;2023-04-24T03:23:43;10.80;91.40
68217;DHT22;55037;52.354;4.992;2023-04-24T03:26:10;10.80;91.40
68217;DHT22;55037;52.354;4.992;2023-04-24T03:28:44;10.70;91.40
68217;DHT22;55037;52.354;4.992;2023-04-24T03:31:12;10.70;91.40
68217;DHT22;55037;52.354;4.992;2023-04-24T03:33:39;10.70;91.50
68217;DHT22;55037;52.354;4.992;2023-04-24T03:36:07;10.70;91.50
68217;DHT22;55037;52.354;4.992;2023-04-24T03:38:38;10.70;91.40
68217;DHT22;55037;52.354;4.992;2023-04-24T03:41:24;10.70;91.40
68217;DHT22;55037;52.354;4.992;2023-04-24T03:43:56;10.80;91.50
68217;DHT22;55037;52.354;4.992;2023-04-24T03:46:23;10.70;91.40
68217;DHT22;55037;52.354;4.992;2023-04-24T03:48:54;10.70;91.50
68217;DHT22;55037;52.354;4.992;2023-04-24T03:51:26;10.70;91.50
68217;DHT22;55037;52.354;4.992;2023-04-24T03:53:59;10.80;91.50
68217;DHT22;55037;52.354;4.992;2023-04-24T03:56:29;10.70;91.40
68217;DHT22;55037;52.354;4.992;2023-04-24T03:58:56;10.70;91.50
68217;DHT22;55037;52.354;4.992;2023-04-24T04:01:24;10.80;91.50
68217;DHT22;55037;52.354;4.992;2023-04-24T04:03:59;10.80;91.50
68217;DHT22;55037;52.354;4.992;2023-04-24T04:06:27;10.80;91.20
68217;DHT22;55037;52.354;4.992;2023-04-24T04:08:57;10.80;91.50
68217;DHT22;55037;52.354;4.992;2023-04-24T04:11:25;10.80;91.40
68217;DHT22;55037;52.354;4.992;2023-04-24T04:13:52;10.90;91.40
68217;DHT22;55037;52.354;4.992;2023-04-24T04:16:21;10.90;91.40
68217;DHT22;55037;52.354;4.992;2023-04-24T04:18:51;10.80;91.50
68217;DHT22;55037;52.354;4.992;2023-04-24T04:21:19;10.90;91.60
68217;DHT22;55037;52.354;4.992;2023-04-24T04:23:53;10.90;91.50
68217;DHT22;55037;52.354;4.992;2023-04-24T04:26:26;10.90;91.50
68217;DHT22;55037;52.354;4.992;2023-04-24T04:29:01;11.00;91.40
68217;DHT22;55037;52.354;4.992;2023-04-24T04:31:31;10.90;91.30
68217;DHT22;55037;52.354;4.992;2023-04-24T04:34:02;10.90;91.50
68217;DHT22;55037;52.354;4.992;2023-04-24T04:36:31;10.90;91.10
68217;DHT22;55037;52.354;4.992;2023-04-24T04:39:07;10.90;91.50
68217;DHT22;55037;52.354;4.992;2023-04-24T04:41:58;10.90;91.30
68217;DHT22;55037;52.354;4.992;2023-04-24T04:44:30;10.90;91.30
68217;DHT22;55037;52.354;4.992;2023-04-24T04:46:59;10.90;91.30
68217;DHT22;55037;52.354;4.992;2023-04-24T04:49:30;10.80;91.30
68217;DHT22;55037;52.354;4.992;2023-04-24T04:51:57;10.80;91.40
68217;DHT22;55037;52.354;4.992;2023-04-24T04:54:26;10.80;91.40
68217;DHT22;55037;52.354;4.992;2023-04-24T04:56:54;10.80;91.30
68217;DHT22;55037;52.354;4.992;2023-04-24T04:59:21;10.80;91.50
68217;DHT22;55037;52.354;4.992;2023-04-24T05:01:54;10.80;91.60
68217;DHT22;55037;52.354;4.992;2023-04-24T05:04:22;10.80;91.50
68217;DHT22;55037;52.354;4.992;2023-04-24T05:06:49;10.80;91.50
68217;DHT22;55037;52.354;4.992;2023-04-24T05:09:18;10.70;91.40
68217;DHT22;55037;52.354;4.992;2023-04-24T05:11:53;10.70;91.40
68217;DHT22;55037;52.354;4.992;2023-04-24T05:14:22;10.70;91.50
68217;DHT22;55037;52.354;4.992;2023-04-24T05:16:49;10.70;91.50
68217;DHT22;55037;52.354;4.992;2023-04-24T05:19:19;10.70;91.60
68217;DHT22;55037;52.354;4.992;2023-04-24T05:21:47;10.70;91.70
68217;DHT22;55037;52.354;4.992;2023-04-24T05:24:14;10.70;91.80
68217;DHT22;55037;52.354;4.992;2023-04-24T05:27:02;10.80;91.80
68217;DHT22;55037;52.354;4.992;2023-04-24T05:29:37;10.80;91.80
68217;DHT22;55037;52.354;4.992;2023-04-24T05:32:05;10.90;91.80
68217;DHT22;55037;52.354;4.992;2023-04-24T05:34:32;11.00;91.90
68217;DHT22;55037;52.354;4.992;2023-04-24T05:37:00;11.10;92.00
68217;DHT22;55037;52.354;4.992;2023-04-24T05:39:27;11.10;92.10
68217;DHT22;55037;52.354;4.992;2023-04-24T05:41:54;11.20;91.90
68217;DHT22;55037;52.354;4.992;2023-04-24T05:44:25;11.20;92.20
68217;DHT22;55037;52.354;4.992;2023-04-24T05:46:52;11.20;91.60
68217;DHT22;55037;52.354;4.992;2023-04-24T05:49:20;11.20;91.50
68217;DHT22;55037;52.354;4.992;2023-04-24T05:51:47;11.20;91.50
68217;DHT22;55037;52.354;4.992;2023-04-24T05:54:16;11.10;91.40
68217;DHT22;55037;52.354;4.992;2023-04-24T05:56:44;11.00;90.90
68217;DHT22;55037;52.354;4.992;2023-04-24T05:59:14;11.00;91.30
68217;DHT22;55037;52.354;4.992;2023-04-24T06:01:42;11.00;91.40
68217;DHT22;55037;52.354;4.992;2023-04-24T06:04:14;10.90;91.30
68217;DHT22;55037;52.354;4.992;2023-04-24T06:06:42;10.80;91.40
68217;DHT22;55037;52.354;4.992;2023-04-24T06:09:10;10.90;91.40
68217;DHT22;55037;52.354;4.992;2023-04-24T06:11:37;10.80;91.40
68217;DHT22;55037;52.354;4.992;2023-04-24T06:14:05;10.80;91.50
68217;DHT22;55037;52.354;4.992;2023-04-24T06:16:41;10.80;91.40
68217;DHT22;55037;52.354;4.992;2023-04-24T06:19:29;10.70;91.30
68217;DHT22;55037;52.354;4.992;2023-04-24T06:21:56;10.70;91.40
68217;DHT22;55037;52.354;4.992;2023-04-24T06:24:27;10.70;91.20
68217;DHT22;55037;52.354;4.992;2023-04-24T06:26:54;10.70;91.50
68217;DHT22;55037;52.354;4.992;2023-04-24T06:29:23;10.70;91.40
68217;DHT22;55037;52.354;4.992;2023-04-24T06:31:50;10.70;91.30
68217;DHT22;55037;52.354;4.992;2023-04-24T06:34:18;10.70;91.40
68217;DHT22;55037;52.354;4.992;2023-04-24T06:36:46;10.70;91.30
68217;DHT22;55037;52.354;4.992;2023-04-24T06:39:14;10.60;91.10
68217;DHT22;55037;52.354;4.992;2023-04-24T06:41:41;10.60;91.20
68217;DHT22;55037;52.354;4.992;2023-04-24T06:44:18;10.60;91.20
68217;DHT22;55037;52.354;4.992;2023-04-24T06:46:45;10.60;91.40
68217;DHT22;55037;52.354;4.992;2023-04-24T06:49:12;10.70;91.30
68217;DHT22;55037;52.354;4.992;2023-04-24T06:51:42;10.60;91.20
68217;DHT22;55037;52.354;4.992;2023-04-24T06:54:10;10.60;91.30
68217;DHT22;55037;52.354;4.992;2023-04-24T06:56:37;10.70;91.30
68217;DHT22;55037;52.354;4.992;2023-04-24T06:59:04;10.70;91.60
68217;DHT22;55037;52.354;4.992;2023-04-24T07:01:31;10.80;91.40
68217;DHT22;55037;52.354;4.992;2023-04-24T07:03:59;10.80;91.30
68217;DHT22;55037;52.354;4.992;2023-04-24T07:06:26;10.80;91.30
68217;DHT22;55037;52.354;4.992;2023-04-24T07:08:54;10.80;91.30
68217;DHT22;55037;52.354;4.992;2023-04-24T07:11:23;10.80;91.20
68217;DHT22;55037;52.354;4.992;2023-04-24T07:13:50;10.80;91.10
68217;DHT22;55037;52.354;4.992;2023-04-24T07:16:17;10.80;91.10
68217;DHT22;55037;52.354;4.992;2023-04-24T07:18:45;10.80;91.10
68217;DHT22;55037;52.354;4.992;2023-04-24T07:21:12;10.80;91.00
68217;DHT22;55037;52.354;4.992;2023-04-24T07:23:39;10.80;91.10
68217;DHT22;55037;52.354;4.992;2023-04-24T07:26:08;10.80;90.80
68217;DHT22;55037;52.354;4.992;2023-04-24T07:28:35;10.60;90.90
68217;DHT22;55037;52.354;4.992;2023-04-24T07:31:02;10.70;90.80
68217;DHT22;55037;52.354;4.992;2023-04-24T07:33:30;10.70;91.10
68217;DHT22;55037;52.354;4.992;2023-04-24T07:35:58;10.70;90.80
68217;DHT22;55037;52.354;4.992;2023-04-24T07:38:25;10.60;90.90
68217;DHT22;55037;52.354;4.992;2023-04-24T07:40:53;10.60;91.00
68217;DHT22;55037;52.354;4.992;2023-04-24T07:43:20;10.60;91.00
68217;DHT22;55037;52.354;4.992;2023-04-24T07:45:48;10.60;90.90
68217;DHT22;55037;52.354;4.992;2023-04-24T07:48:15;10.60;90.90
68217;DHT22;55037;52.354;4.992;2023-04-24T07:50:45;10.60;91.00
68217;DHT22;55037;52.354;4.992;2023-04-24T07:53:12;10.60;90.70
68217;DHT22;55037;52.354;4.992;2023-04-24T07:55:39;10.60;90.70
68217;DHT22;55037;52.354;4.992;2023-04-24T07:58:06;10.60;90.70
68217;DHT22;55037;52.354;4.992;2023-04-24T08:00:34;10.60;90.80
68217;DHT22;55037;52.354;4.992;2023-04-24T08:03:01;10.60;91.00
68217;DHT22;55037;52.354;4.992;2023-04-24T08:05:29;10.60;90.80
68217;DHT22;55037;52.354;4.992;2023-04-24T08:07:56;10.70;90.80
68217;DHT22;55037;52.354;4.992;2023-04-24T08:10:24;10.70;90.70
68217;DHT22;55037;52.354;4.992;2023-04-24T08:12:51;10.80;90.30
68217;DHT22;55037;52.354;4.992;2023-04-24T08:15:19;10.80;90.30
68217;DHT22;55037;52.354;4.992;2023-04-24T08:17:48;10.80;90.20
68217;DHT22;55037;52.354;4.992;2023-04-24T08:20:16;10.90;90.00
68217;DHT22;55037;52.354;4.992;2023-04-24T08:22:44;10.90;90.00
68217;DHT22;55037;52.354;4.992;2023-04-24T08:25:14;11.00;89.60
68217;DHT22;55037;52.354;4.992;2023-04-24T08:27:41;11.10;88.90
68217;DHT22;55037;52.354;4.992;2023-04-24T08:30:08;11.20;87.00
68217;DHT22;55037;52.354;4.992;2023-04-24T08:32:36;11.20;88.20
68217;DHT22;55037;52.354;4.992;2023-04-24T08:35:04;11.30;88.60
68217;DHT22;55037;52.354;4.992;2023-04-24T08:37:32;11.50;87.90
68217;DHT22;55037;52.354;4.992;2023-04-24T08:39:59;11.60;87.00
68217;DHT22;55037;52.354;4.992;2023-04-24T08:42:31;11.60;86.20
68217;DHT22;55037;52.354;4.992;2023-04-24T08:45:00;11.70;85.90
68217;DHT22;55037;52.354;4.992;2023-04-24T08:47:28;11.70;84.70
68217;DHT22;55037;52.354;4.992;2023-04-24T08:49:56;11.70;84.80
68217;DHT22;55037;52.354;4.992;2023-04-24T08:52:25;11.70;84.70
68217;DHT22;55037;52.354;4.992;2023-04-24T08:54:53;11.60;84.30
68217;DHT22;55037;52.354;4.992;2023-04-24T08:57:22;11.40;84.30
68217;DHT22;55037;52.354;4.992;2023-04-24T08:59:50;11.30;84.40
68217;DHT22;55037;52.354;4.992;2023-04-24T09:02:18;11.20;84.70
68217;DHT22;55037;52.354;4.992;2023-04-24T09:04:47;11.10;84.50
68217;DHT22;55037;52.354;4.992;2023-04-24T09:07:16;10.80;84.70
68217;DHT22;55037;52.354;4.992;2023-04-24T09:09:44;10.90;85.60
68217;DHT22;55037;52.354;4.992;2023-04-24T09:12:11;10.70;84.80
68217;DHT22;55037;52.354;4.992;2023-04-24T09:14:39;10.60;86.50
68217;DHT22;55037;52.354;4.992;2023-04-24T09:17:09;10.60;87.20
68217;DHT22;55037;52.354;4.992;2023-04-24T09:19:37;10.70;87.80
68217;DHT22;55037;52.354;4.992;2023-04-24T09:22:05;10.80;87.30
68217;DHT22;55037;52.354;4.992;2023-04-24T09:24:33;11.00;87.80
68217;DHT22;55037;52.354;4.992;2023-04-24T09:27:02;11.20;88.10
68217;DHT22;55037;52.354;4.992;2023-04-24T09:29:29;11.50;88.30
68217;DHT22;55037;52.354;4.992;2023-04-24T09:31:56;11.80;88.10
68217;DHT22;55037;52.354;4.992;2023-04-24T09:34:27;12.10;87.00
68217;DHT22;55037;52.354;4.992;2023-04-24T09:36:54;12.40;85.60
68217;DHT22;55037;52.354;4.992;2023-04-24T09:39:22;12.60;85.90
68217;DHT22;55037;52.354;4.992;2023-04-24T09:41:51;12.80;84.90
68217;DHT22;55037;52.354;4.992;2023-04-24T09:44:24;13.10;83.50
68217;DHT22;55037;52.354;4.992;2023-04-24T09:46:56;13.10;83.40
68217;DHT22;55037;52.354;4.992;2023-04-24T09:51:53;13.40;83.30
68217;DHT22;55037;52.354;4.992;2023-04-24T09:54:29;13.40;81.70
68217;DHT22;55037;52.354;4.992;2023-04-24T09:56:57;13.50;81.70
68217;DHT22;55037;52.354;4.992;2023-04-24T09:59:24;13.60;81.40
68217;DHT22;55037;52.354;4.992;2023-04-24T10:01:51;13.60;80.70
68217;DHT22;55037;52.354;4.992;2023-04-24T10:04:21;13.60;80.80
68217;DHT22;55037;52.354;4.992;2023-04-24T10:06:50;13.80;82.50
68217;DHT22;55037;52.354;4.992;2023-04-24T10:09:19;14.00;79.10
68217;DHT22;55037;52.354;4.992;2023-04-24T10:11:49;13.70;77.20
68217;DHT22;55037;52.354;4.992;2023-04-24T10:14:19;13.30;78.00
68217;DHT22;55037;52.354;4.992;2023-04-24T10:16:48;13.20;79.00
68217;DHT22;55037;52.354;4.992;2023-04-24T10:19:16;13.30;79.60
68217;DHT22;55037;52.354;4.992;2023-04-24T10:21:46;13.40;78.60
68217;DHT22;55037;52.354;4.992;2023-04-24T10:24:15;13.40;78.50
68217;DHT22;55037;52.354;4.992;2023-04-24T10:26:44;13.30;77.90
68217;DHT22;55037;52.354;4.992;2023-04-24T10:29:13;13.50;79.20
68217;DHT22;55037;52.354;4.992;2023-04-24T10:31:43;14.10;78.70
68217;DHT22;55037;52.354;4.992;2023-04-24T10:34:15;14.90;78.80
68217;DHT22;55037;52.354;4.992;2023-04-24T10:36:47;15.20;74.20
68217;DHT22;55037;52.354;4.992;2023-04-24T10:39:16;14.90;74.30
68217;DHT22;55037;52.354;4.992;2023-04-24T10:41:44;14.30;74.30
68217;DHT22;55037;52.354;4.992;2023-04-24T10:44:15;13.80;77.20
68217;DHT22;55037;52.354;4.992;2023-04-24T10:46:46;14.40;81.00
68217;DHT22;55037;52.354;4.992;2023-04-24T10:49:28;15.90;78.50
68217;DHT22;55037;52.354;4.992;2023-04-24T10:52:00;18.50;73.00
68217;DHT22;55037;52.354;4.992;2023-04-24T10:54:41;20.70;66.20
68217;DHT22;55037;52.354;4.992;2023-04-24T10:59:51;20.90;56.30
68217;DHT22;55037;52.354;4.992;2023-04-24T11:02:19;19.40;62.00
68217;DHT22;55037;52.354;4.992;2023-04-24T11:05:06;18.90;64.30
68217;DHT22;55037;52.354;4.992;2023-04-24T11:10:47;17.60;64.60
68217;DHT22;55037;52.354;4.992;2023-04-24T11:13:16;16.70;65.00
68217;DHT22;55037;52.354;4.992;2023-04-24T11:15:43;15.80;66.50
68217;DHT22;55037;52.354;4.992;2023-04-24T11:18:14;15.30;69.50
68217;DHT22;55037;52.354;4.992;2023-04-24T11:20:44;15.00;70.90
68217;DHT22;55037;52.354;4.992;2023-04-24T11:23:12;15.20;72.40
68217;DHT22;55037;52.354;4.992;2023-04-24T11:25:41;15.60;71.80
68217;DHT22;55037;52.354;4.992;2023-04-24T11:28:14;15.60;70.60
68217;DHT22;55037;52.354;4.992;2023-04-24T11:30:42;15.20;69.10
68217;DHT22;55037;52.354;4.992;2023-04-24T11:33:10;14.70;71.70
68217;DHT22;55037;52.354;4.992;2023-04-24T11:35:40;14.80;72.10
68217;DHT22;55037;52.354;4.992;2023-04-24T11:38:07;15.70;74.70
68217;DHT22;55037;52.354;4.992;2023-04-24T11:40:38;17.80;71.50
68217;DHT22;55037;52.354;4.992;2023-04-24T11:43:06;19.90;63.90
68217;DHT22;55037;52.354;4.992;2023-04-24T11:45:34;19.80;59.10
68217;DHT22;55037;52.354;4.992;2023-04-24T11:48:03;18.80;58.80
68217;DHT22;55037;52.354;4.992;2023-04-24T11:50:31;18.80;64.10
68217;DHT22;55037;52.354;4.992;2023-04-24T11:52:58;19.60;64.30
68217;DHT22;55037;52.354;4.992;2023-04-24T11:55:28;20.60;55.00
68217;DHT22;55037;52.354;4.992;2023-04-24T11:57:58;21.30;56.10
68217;DHT22;55037;52.354;4.992;2023-04-24T12:03:08;19.80;55.70
68217;DHT22;55037;52.354;4.992;2023-04-24T12:05:36;18.60;58.40
68217;DHT22;55037;52.354;4.992;2023-04-24T12:08:04;17.40;57.10
68217;DHT22;55037;52.354;4.992;2023-04-24T12:10:33;16.10;61.00
68217;DHT22;55037;52.354;4.992;2023-04-24T12:13:01;14.90;65.50
68217;DHT22;55037;52.354;4.992;2023-04-24T12:15:29;14.00;67.20
68217;DHT22;55037;52.354;4.992;2023-04-24T12:17:56;13.10;69.40
68217;DHT22;55037;52.354;4.992;2023-04-24T12:20:27;12.50;71.20
68217;DHT22;55037;52.354;4.992;2023-04-24T12:22:59;12.10;71.60
68217;DHT22;55037;52.354;4.992;2023-04-24T12:25:29;11.90;71.80
68217;DHT22;55037;52.354;4.992;2023-04-24T12:30:49;12.10;73.00
68217;DHT22;55037;52.354;4.992;2023-04-24T12:33:20;12.40;73.50
68217;DHT22;55037;52.354;4.992;2023-04-24T12:35:51;12.70;74.10
68217;DHT22;55037;52.354;4.992;2023-04-24T12:38:25;13.00;73.90
68217;DHT22;55037;52.354;4.992;2023-04-24T12:41:09;13.30;71.00
68217;DHT22;55037;52.354;4.992;2023-04-24T12:43:37;13.50;70.20
68217;DHT22;55037;52.354;4.992;2023-04-24T12:46:04;13.70;73.40
68217;DHT22;55037;52.354;4.992;2023-04-24T12:48:32;13.90;70.20
68217;DHT22;55037;52.354;4.992;2023-04-24T12:50:59;14.00;69.70
68217;DHT22;55037;52.354;4.992;2023-04-24T12:53:30;13.90;70.10
68217;DHT22;55037;52.354;4.992;2023-04-24T12:55:58;13.50;67.20
68217;DHT22;55037;52.354;4.992;2023-04-24T12:58:25;13.20;67.60
68217;DHT22;55037;52.354;4.992;2023-04-24T13:00:52;13.00;69.10
68217;DHT22;55037;52.354;4.992;2023-04-24T13:03:20;13.00;70.40
68217;DHT22;55037;52.354;4.992;2023-04-24T13:05:47;13.30;71.20
68217;DHT22;55037;52.354;4.992;2023-04-24T13:08:15;13.50;69.80
68217;DHT22;55037;52.354;4.992;2023-04-24T13:10:42;13.50;70.70
68217;DHT22;55037;52.354;4.992;2023-04-24T13:13:09;13.50;68.80
68217;DHT22;55037;52.354;4.992;2023-04-24T13:15:36;13.30;68.30
68217;DHT22;55037;52.354;4.992;2023-04-24T13:18:04;13.10;68.70
68217;DHT22;55037;52.354;4.992;2023-04-24T13:20:31;13.10;71.80
68217;DHT22;55037;52.354;4.992;2023-04-24T13:22:59;14.00;77.70
68217;DHT22;55037;52.354;4.992;2023-04-24T13:25:27;15.30;69.70
68217;DHT22;55037;52.354;4.992;2023-04-24T13:27:55;15.40;67.60
68217;DHT22;55037;52.354;4.992;2023-04-24T13:30:22;14.90;66.80
68217;DHT22;55037;52.354;4.992;2023-04-24T13:32:49;14.40;67.10
68217;DHT22;55037;52.354;4.992;2023-04-24T13:35:17;13.80;66.60
68217;DHT22;55037;52.354;4.992;2023-04-24T13:37:44;13.30;68.20
68217;DHT22;55037;52.354;4.992;2023-04-24T13:40:11;13.20;71.50
68217;DHT22;55037;52.354;4.992;2023-04-24T13:42:40;14.10;73.40
68217;DHT22;55037;52.354;4.992;2023-04-24T13:45:07;15.40;68.90
68217;DHT22;55037;52.354;4.992;2023-04-24T13:47:51;15.80;65.50
68217;DHT22;55037;52.354;4.992;2023-04-24T13:50:20;15.50;65.00
68217;DHT22;55037;52.354;4.992;2023-04-24T13:52:47;15.40;64.40
68217;DHT22;55037;52.354;4.992;2023-04-24T13:55:14;15.10;66.70
68217;DHT22;55037;52.354;4.992;2023-04-24T13:57:42;15.30;67.60
68217;DHT22;55037;52.354;4.992;2023-04-24T14:00:09;15.90;65.60
68217;DHT22;55037;52.354;4.992;2023-04-24T14:02:38;16.40;64.60
68217;DHT22;55037;52.354;4.992;2023-04-24T14:05:05;16.30;63.00
68217;DHT22;55037;52.354;4.992;2023-04-24T14:07:33;16.90;65.80
68217;DHT22;55037;52.354;4.992;2023-04-24T14:10:00;17.80;65.40
68217;DHT22;55037;52.354;4.992;2023-04-24T14:12:28;18.30;65.10
68217;DHT22;55037;52.354;4.992;2023-04-24T14:14:55;18.90;62.20
68217;DHT22;55037;52.354;4.992;2023-04-24T14:17:22;19.30;60.70
68217;DHT22;55037;52.354;4.992;2023-04-24T14:19:49;19.10;55.30
68217;DHT22;55037;52.354;4.992;2023-04-24T14:22:18;18.90;55.10
68217;DHT22;55037;52.354;4.992;2023-04-24T14:24:46;18.40;55.70
68217;DHT22;55037;52.354;4.992;2023-04-24T14:27:13;17.90;56.30
68217;DHT22;55037;52.354;4.992;2023-04-24T14:29:40;17.30;60.00
68217;DHT22;55037;52.354;4.992;2023-04-24T14:32:08;16.80;57.00
68217;DHT22;55037;52.354;4.992;2023-04-24T14:34:36;16.10;58.20
68217;DHT22;55037;52.354;4.992;2023-04-24T14:37:03;15.60;59.80
68217;DHT22;55037;52.354;4.992;2023-04-24T14:39:30;15.80;63.00
68217;DHT22;55037;52.354;4.992;2023-04-24T14:41:57;15.70;57.90
68217;DHT22;55037;52.354;4.992;2023-04-24T14:44:25;15.50;60.70
68217;DHT22;55037;52.354;4.992;2023-04-24T14:46:52;15.10;61.70
68217;DHT22;55037;52.354;4.992;2023-04-24T14:49:20;15.30;67.00
68217;DHT22;55037;52.354;4.992;2023-04-24T14:51:47;15.80;67.40
68217;DHT22;55037;52.354;4.992;2023-04-24T14:54:14;16.20;68.40
68217;DHT22;55037;52.354;4.992;2023-04-24T14:56:42;16.50;63.70
68217;DHT22;55037;52.354;4.992;2023-04-24T14:59:11;16.70;59.30
68217;DHT22;55037;52.354;4.992;2023-04-24T15:01:38;16.70;55.20
68217;DHT22;55037;52.354;4.992;2023-04-24T15:04:05;16.20;52.80
68217;DHT22;55037;52.354;4.992;2023-04-24T15:06:33;15.40;54.90
68217;DHT22;55037;52.354;4.992;2023-04-24T15:09:00;14.90;58.50
68217;DHT22;55037;52.354;4.992;2023-04-24T15:11:27;14.60;63.60
68217;DHT22;55037;52.354;4.992;2023-04-24T15:13:56;15.00;63.00
68217;DHT22;55037;52.354;4.992;2023-04-24T15:16:23;15.30;64.10
68217;DHT22;55037;52.354;4.992;2023-04-24T15:18:51;15.20;61.40
68217;DHT22;55037;52.354;4.992;2023-04-24T15:21:18;14.90;59.90
68217;DHT22;55037;52.354;4.992;2023-04-24T15:23:46;14.40;61.10
68217;DHT22;55037;52.354;4.992;2023-04-24T15:26:14;14.10;62.40
68217;DHT22;55037;52.354;4.992;2023-04-24T15:28:41;14.10;63.70
68217;DHT22;55037;52.354;4.992;2023-04-24T15:31:08;14.20;64.20
68217;DHT22;55037;52.354;4.992;2023-04-24T15:33:35;14.10;63.50
68217;DHT22;55037;52.354;4.992;2023-04-24T15:36:03;14.10;62.60
68217;DHT22;55037;52.354;4.992;2023-04-24T15:38:31;13.90;62.20
68217;DHT22;55037;52.354;4.992;2023-04-24T15:40:58;13.70;63.90
68217;DHT22;55037;52.354;4.992;2023-04-24T15:43:25;13.50;64.10
68217;DHT22;55037;52.354;4.992;2023-04-24T15:45:52;13.50;63.40
68217;DHT22;55037;52.354;4.992;2023-04-24T15:48:20;13.30;65.40
68217;DHT22;55037;52.354;4.992;2023-04-24T15:50:47;13.60;66.30
68217;DHT22;55037;52.354;4.992;2023-04-24T15:53:14;13.80;65.30